createdAt,value
2023-03-28T00:01:01.484Z,99.90
2023-03-28T00:03:35.570Z,99.90
2023-03-28T00:06:05.973Z,99.90
2023-03-28T00:08:34.087Z,99.90
2023-03-28T00:11:07.529Z,99.90
2023-03-28T00:13:37.704Z,99.90
2023-03-28T00:16:08.858Z,99.90
2023-03-28T00:18:39.045Z,99.90
2023-03-28T00:21:20.078Z,99.90
2023-03-28T00:23:52.775Z,99.90
2023-03-28T00:26:22.193Z,99.90
2023-03-28T00:28:51.868Z,99.90
2023-03-28T00:31:20.335Z,99.90
2023-03-28T00:33:48.481Z,99.90
2023-03-28T00:36:18.448Z,99.90
2023-03-28T00:38:46.672Z,99.90
2023-03-28T00:41:16.156Z,99.90
2023-03-28T00:43:46.501Z,99.90
2023-03-28T00:46:22.618Z,99.90
2023-03-28T00:48:53.864Z,99.90
2023-03-28T00:51:27.054Z,99.90
2023-03-28T00:53:57.996Z,99.90
2023-03-28T00:56:29.736Z,99.90
2023-03-28T00:58:58.575Z,99.90
2023-03-28T01:01:28.509Z,99.90
2023-03-28T01:04:02.508Z,99.90
2023-03-28T01:06:34.020Z,99.90
2023-03-28T01:09:07.521Z,99.90
2023-03-28T01:11:38.851Z,99.90
2023-03-28T01:14:08.702Z,99.90
2023-03-28T01:16:41.366Z,99.90
2023-03-28T01:19:15.061Z,99.90
2023-03-28T01:22:15.508Z,99.90
2023-03-28T01:25:16.106Z,99.90
2023-03-28T01:27:52.121Z,99.90
2023-03-28T01:31:04.670Z,99.90
2023-03-28T01:33:58.854Z,99.90
2023-03-28T01:37:10.296Z,99.90
2023-03-28T01:39:54.447Z,99.90
2023-03-28T01:42:31.028Z,99.90
2023-03-28T01:45:07.599Z,99.90
2023-03-28T01:47:41.033Z,99.90
2023-03-28T01:50:15.085Z,99.90
2023-03-28T01:52:51.898Z,99.90
2023-03-28T01:55:23.985Z,99.90
2023-03-28T01:57:58.608Z,99.90
2023-03-28T02:00:31.615Z,99.90
2023-03-28T02:03:04.280Z,99.90
2023-03-28T02:05:35.605Z,99.90
2023-03-28T02:08:09.086Z,99.90
2023-03-28T02:10:40.919Z,99.90
2023-03-28T02:13:13.935Z,99.90
2023-03-28T02:15:45.086Z,99.90
2023-03-28T02:18:18.029Z,99.90
2023-03-28T02:20:47.459Z,99.90
2023-03-28T02:23:20.592Z,99.90
2023-03-28T02:25:48.620Z,99.90
2023-03-28T02:28:19.318Z,99.90
2023-03-28T02:30:47.623Z,99.90
2023-03-28T02:33:37.999Z,99.90
2023-03-28T02:36:24.788Z,99.90
2023-03-28T02:39:04.874Z,99.90
2023-03-28T02:41:38.952Z,99.90
2023-03-28T02:44:21.410Z,99.90
2023-03-28T02:46:55.603Z,99.90
2023-03-28T02:49:50.552Z,99.90
2023-03-28T02:52:34.910Z,99.90
2023-03-28T02:55:14.336Z,99.90
2023-03-28T02:57:47.381Z,99.90
2023-03-28T03:00:19.324Z,99.90
2023-03-28T03:02:51.481Z,99.90
2023-03-28T03:05:21.186Z,99.90
2023-03-28T03:07:50.088Z,99.90
2023-03-28T03:10:21.928Z,99.90
2023-03-28T03:12:49.882Z,99.90
2023-03-28T03:15:17.966Z,99.90
2023-03-28T03:17:46.097Z,99.90
2023-03-28T03:20:14.443Z,99.90
2023-03-28T03:22:42.516Z,99.90
2023-03-28T03:25:13.869Z,99.90
2023-03-28T03:27:43.953Z,99.90
2023-03-28T03:30:13.664Z,99.90
2023-03-28T03:32:44.153Z,99.90
2023-03-28T03:35:13.026Z,99.90
2023-03-28T03:37:41.466Z,99.90
2023-03-28T03:40:10.486Z,99.90
2023-03-28T03:42:38.442Z,99.90
2023-03-28T03:45:09.695Z,99.90
2023-03-28T03:47:38.160Z,99.90
2023-03-28T03:50:08.134Z,99.90
2023-03-28T03:52:36.135Z,99.90
2023-03-28T03:55:04.657Z,99.90
2023-03-28T03:57:32.629Z,99.90
2023-03-28T04:00:02.065Z,99.90
2023-03-28T04:02:31.645Z,99.90
2023-03-28T04:04:59.832Z,99.90
2023-03-28T04:07:27.810Z,99.90
2023-03-28T04:09:56.810Z,99.90
2023-03-28T04:12:24.832Z,99.90
2023-03-28T04:14:52.815Z,99.90
2023-03-28T04:17:21.462Z,99.90
2023-03-28T04:19:51.107Z,99.90
2023-03-28T04:22:19.238Z,99.90
2023-03-28T04:24:49.769Z,99.90
2023-03-28T04:27:17.939Z,99.90
2023-03-28T04:29:45.893Z,99.90
2023-03-28T04:32:13.866Z,99.90
2023-03-28T04:34:41.869Z,99.90
2023-03-28T04:37:11.203Z,99.90
2023-03-28T04:39:41.651Z,99.90
2023-03-28T04:42:11.004Z,99.90
2023-03-28T04:44:38.932Z,99.90
2023-03-28T04:47:08.573Z,99.90
2023-03-28T04:49:36.581Z,99.90
2023-03-28T04:52:04.628Z,99.90
2023-03-28T04:54:35.278Z,99.90
2023-03-28T04:57:05.025Z,99.90
2023-03-28T04:59:33.072Z,99.90
2023-03-28T05:02:01.096Z,99.90
2023-03-28T05:04:30.026Z,99.90
2023-03-28T05:06:58.163Z,99.90
2023-03-28T05:09:26.396Z,99.90
2023-03-28T05:11:55.805Z,99.90
2023-03-28T05:14:23.807Z,99.90
2023-03-28T05:16:52.000Z,99.90
2023-03-28T05:19:20.881Z,99.90
2023-03-28T05:21:49.034Z,99.90
2023-03-28T05:24:17.098Z,99.90
2023-03-28T05:26:45.070Z,99.90
2023-03-28T05:29:14.398Z,99.90
2023-03-28T05:31:42.454Z,99.90
2023-03-28T05:34:10.993Z,99.90
2023-03-28T05:36:38.992Z,99.90
2023-03-28T05:39:07.101Z,99.90
2023-03-28T05:41:35.126Z,99.90
2023-03-28T05:44:04.505Z,99.90
2023-03-28T05:46:33.908Z,99.90
2023-03-28T05:49:01.932Z,99.90
2023-03-28T05:51:29.905Z,99.90
2023-03-28T05:53:57.907Z,99.90
2023-03-28T05:56:25.953Z,99.90
2023-03-28T05:58:53.910Z,99.90
2023-03-28T06:01:23.376Z,99.90
2023-03-28T06:03:52.830Z,99.90
2023-03-28T06:06:21.050Z,99.90
2023-03-28T06:08:49.030Z,99.90
2023-03-28T06:11:17.114Z,99.90
2023-03-28T06:13:45.153Z,99.90
2023-03-28T06:16:13.141Z,99.90
2023-03-28T06:18:41.105Z,99.90
2023-03-28T06:21:10.752Z,99.90
2023-03-28T06:23:39.388Z,99.90
2023-03-28T06:26:08.247Z,99.90
2023-03-28T06:28:36.292Z,99.90
2023-03-28T06:31:04.932Z,99.90
2023-03-28T06:33:32.966Z,99.90
2023-03-28T06:36:00.963Z,99.90
2023-03-28T06:38:31.030Z,99.90
2023-03-28T06:40:59.178Z,99.90
2023-03-28T06:43:27.406Z,99.90
2023-03-28T06:45:55.487Z,99.90
2023-03-28T06:48:23.472Z,99.90
2023-03-28T06:50:51.462Z,99.90
2023-03-28T06:53:20.336Z,99.90
2023-03-28T06:55:50.813Z,99.90
2023-03-28T06:58:18.804Z,99.90
2023-03-28T07:00:47.016Z,99.90
2023-03-28T07:03:15.325Z,99.90
2023-03-28T07:05:44.120Z,99.90
2023-03-28T07:08:13.780Z,99.90
2023-03-28T07:10:44.266Z,99.90
2023-03-28T07:13:13.652Z,99.90
2023-03-28T07:15:41.636Z,99.90
2023-03-28T07:18:10.588Z,99.90
2023-03-28T07:20:40.516Z,99.90
2023-03-28T07:23:08.642Z,99.90
2023-03-28T07:25:36.656Z,99.90
2023-03-28T07:28:04.883Z,99.90
2023-03-28T07:30:34.230Z,99.90
2023-03-28T07:33:14.097Z,99.90
2023-03-28T07:35:45.032Z,99.90
2023-03-28T07:38:13.093Z,99.90
2023-03-28T07:40:41.177Z,99.90
2023-03-28T07:43:09.164Z,99.90
2023-03-28T07:45:38.988Z,99.90
2023-03-28T07:48:07.865Z,99.90
2023-03-28T07:50:36.647Z,99.90
2023-03-28T07:53:04.645Z,99.90
2023-03-28T07:55:39.422Z,99.90
2023-03-28T07:58:12.834Z,99.90
2023-03-28T08:00:43.091Z,99.90
2023-03-28T08:03:11.178Z,99.90
2023-03-28T08:05:39.541Z,99.90
2023-03-28T08:08:08.514Z,99.90
2023-03-28T08:10:36.956Z,99.90
2023-03-28T08:13:05.384Z,99.90
2023-03-28T08:15:33.551Z,99.90
2023-03-28T08:18:03.078Z,99.90
2023-03-28T08:20:31.059Z,98.40
2023-03-28T08:22:59.724Z,97.80
2023-03-28T08:25:27.694Z,95.80
2023-03-28T08:27:56.640Z,90.80
2023-03-28T08:30:24.758Z,92.50
2023-03-28T08:32:52.863Z,96.90
2023-03-28T08:35:22.383Z,97.70
2023-03-28T08:37:51.269Z,97.40
2023-03-28T08:40:21.572Z,89.20
2023-03-28T08:43:07.833Z,82.30
2023-03-28T08:45:47.448Z,71.70
2023-03-28T08:48:23.272Z,66.40
2023-03-28T08:50:59.569Z,68.90
2023-03-28T08:53:34.361Z,59.90
2023-03-28T08:56:04.952Z,59.30
2023-03-28T08:58:38.776Z,55.90
2023-03-28T09:01:07.062Z,52.80
2023-03-28T09:03:37.197Z,47.20
2023-03-28T09:06:18.062Z,43.90
2023-03-28T09:09:00.123Z,40.20
2023-03-28T09:11:40.540Z,39.50
2023-03-28T09:14:35.862Z,39.00
2023-03-28T09:17:10.267Z,43.00
2023-03-28T09:19:57.509Z,47.90
2023-03-28T09:22:35.437Z,59.00
2023-03-28T09:25:21.945Z,57.10
2023-03-28T09:27:55.848Z,52.60
2023-03-28T09:30:28.160Z,47.80
2023-03-28T09:32:59.761Z,47.80
2023-03-28T09:35:30.211Z,46.00
2023-03-28T09:38:04.649Z,41.40
2023-03-28T09:40:35.605Z,45.50
2023-03-28T09:43:09.153Z,55.10
2023-03-28T09:45:52.348Z,63.60
2023-03-28T09:48:24.226Z,74.60
2023-03-28T09:50:52.693Z,87.30
2023-03-28T09:53:25.002Z,95.30
2023-03-28T09:56:03.591Z,99.90
2023-03-28T09:58:49.622Z,99.90
2023-03-28T10:01:38.640Z,96.00
2023-03-28T10:04:12.403Z,89.10
2023-03-28T10:06:41.667Z,91.50
2023-03-28T10:09:19.218Z,88.20
2023-03-28T10:11:54.291Z,84.70
2023-03-28T10:14:41.328Z,90.60
2023-03-28T10:17:14.940Z,83.70
2023-03-28T10:19:45.732Z,85.00
2023-03-28T10:22:16.939Z,80.10
2023-03-28T10:24:48.491Z,70.50
2023-03-28T10:27:23.825Z,58.90
2023-03-28T10:29:53.431Z,58.10
2023-03-28T10:32:26.602Z,57.50
2023-03-28T10:35:03.005Z,57.20
2023-03-28T10:37:33.377Z,55.70
2023-03-28T10:40:10.846Z,56.70
2023-03-28T10:42:43.782Z,61.30
2023-03-28T10:45:23.800Z,55.00
2023-03-28T10:47:55.597Z,51.90
2023-03-28T10:50:30.102Z,50.20
2023-03-28T10:53:10.925Z,50.50
2023-03-28T10:55:48.133Z,46.00
2023-03-28T10:58:26.286Z,43.00
2023-03-28T11:01:02.270Z,42.90
2023-03-28T11:03:54.954Z,41.20
2023-03-28T11:06:27.576Z,39.60
2023-03-28T11:09:04.380Z,38.60
2023-03-28T11:11:45.376Z,36.90
2023-03-28T11:14:24.176Z,35.90
2023-03-28T11:17:00.518Z,35.60
2023-03-28T11:19:50.706Z,34.90
2023-03-28T11:22:31.830Z,34.00
2023-03-28T11:25:09.735Z,32.80
2023-03-28T11:27:45.387Z,32.70
2023-03-28T11:30:17.788Z,33.30
2023-03-28T11:32:50.259Z,33.20
2023-03-28T11:35:26.581Z,34.90
2023-03-28T11:38:02.263Z,33.50
2023-03-28T11:40:37.465Z,33.50
2023-03-28T11:43:08.218Z,33.30
2023-03-28T11:45:51.088Z,33.30
2023-03-28T11:48:24.515Z,32.40
2023-03-28T11:51:03.520Z,33.50
2023-03-28T11:53:37.877Z,33.60
2023-03-28T11:56:15.206Z,35.90
2023-03-28T11:58:49.819Z,33.90
2023-03-28T12:01:21.510Z,34.60
2023-03-28T12:04:01.451Z,31.80
2023-03-28T12:06:35.677Z,31.90
2023-03-28T12:09:12.499Z,33.70
2023-03-28T12:11:43.402Z,33.60
2023-03-28T12:14:40.126Z,32.50
2023-03-28T12:17:19.132Z,32.80
2023-03-28T12:19:48.588Z,33.40
2023-03-28T12:22:22.694Z,32.60
2023-03-28T12:24:59.252Z,32.10
2023-03-28T12:27:42.490Z,30.80
2023-03-28T12:30:21.248Z,30.80
2023-03-28T12:32:58.604Z,30.00
2023-03-28T12:35:35.589Z,31.40
2023-03-28T12:38:14.249Z,31.80
2023-03-28T12:40:54.769Z,33.10
2023-03-28T12:43:27.977Z,31.90
2023-03-28T12:46:01.188Z,33.10
2023-03-28T12:48:37.837Z,34.10
2023-03-28T12:51:12.068Z,34.40
2023-03-28T12:53:46.331Z,35.70
2023-03-28T12:56:16.662Z,32.70
2023-03-28T12:58:46.666Z,32.00
2023-03-28T13:01:34.780Z,33.30
2023-03-28T13:04:15.094Z,33.90
2023-03-28T13:06:49.494Z,33.10
2023-03-28T13:09:41.515Z,32.80
2023-03-28T13:12:30.247Z,33.60
2023-03-28T13:15:00.967Z,33.40
2023-03-28T13:17:32.994Z,34.20
2023-03-28T13:20:25.624Z,32.60
2023-03-28T13:22:58.200Z,32.90
2023-03-28T13:25:29.643Z,33.10
2023-03-28T13:28:00.627Z,32.60
2023-03-28T13:30:30.556Z,33.40
2023-03-28T13:33:03.382Z,33.30
2023-03-28T13:35:49.217Z,32.00
2023-03-28T13:38:25.010Z,31.30
2023-03-28T13:40:59.568Z,33.50
2023-03-28T13:43:38.994Z,32.00
2023-03-28T13:46:12.359Z,31.10
2023-03-28T13:48:47.368Z,32.60
2023-03-28T13:51:20.641Z,31.10
2023-03-28T13:53:49.642Z,31.00
2023-03-28T13:56:23.300Z,32.10
2023-03-28T13:58:53.542Z,31.40
2023-03-28T14:01:25.813Z,30.40
2023-03-28T14:03:56.659Z,30.80
2023-03-28T14:06:26.651Z,31.10
2023-03-28T14:08:56.963Z,29.80
2023-03-28T14:11:30.370Z,30.00
2023-03-28T14:14:08.065Z,30.40
2023-03-28T14:16:37.749Z,31.40
2023-03-28T14:19:07.756Z,30.30
2023-03-28T14:21:36.150Z,30.10
2023-03-28T14:24:07.567Z,29.40
2023-03-28T14:26:37.112Z,30.20
2023-03-28T14:29:08.144Z,29.20
2023-03-28T14:31:38.518Z,30.00
2023-03-28T14:34:18.581Z,30.10
2023-03-28T14:37:01.148Z,32.80
2023-03-28T14:39:31.329Z,32.20
2023-03-28T14:42:01.962Z,31.40
2023-03-28T14:44:31.416Z,31.10
2023-03-28T14:47:00.954Z,32.50
2023-03-28T14:49:31.769Z,33.00
2023-03-28T14:52:03.498Z,31.10
2023-03-28T14:54:34.989Z,30.60
2023-03-28T14:57:05.872Z,31.30
2023-03-28T14:59:37.910Z,31.30
2023-03-28T15:02:06.795Z,31.00
2023-03-28T15:04:36.700Z,29.90
2023-03-28T15:07:08.322Z,29.10
2023-03-28T15:09:36.938Z,28.00
2023-03-28T15:12:09.264Z,28.30
2023-03-28T15:14:41.179Z,27.90
2023-03-28T15:17:45.626Z,27.30
2023-03-28T15:20:19.332Z,26.00
2023-03-28T15:22:51.199Z,25.40
2023-03-28T15:25:23.324Z,25.20
2023-03-28T15:27:56.075Z,24.30
2023-03-28T15:30:25.236Z,24.10
2023-03-28T15:33:01.021Z,24.30
2023-03-28T15:35:33.643Z,24.90
2023-03-28T15:38:03.151Z,24.60
2023-03-28T15:40:37.783Z,24.20
2023-03-28T15:43:06.879Z,23.90
2023-03-28T15:45:40.971Z,24.40
2023-03-28T15:48:16.312Z,22.90
2023-03-28T15:50:50.992Z,22.60
2023-03-28T15:53:20.146Z,21.50
2023-03-28T15:55:50.326Z,21.70
2023-03-28T15:58:20.740Z,22.10
2023-03-28T16:00:50.988Z,23.10
2023-03-28T16:03:30.389Z,23.90
2023-03-28T16:06:30.934Z,23.60
2023-03-28T16:09:16.652Z,23.20
2023-03-28T16:11:45.774Z,22.60
2023-03-28T16:14:17.524Z,22.20
2023-03-28T16:16:45.751Z,23.00
2023-03-28T16:19:20.160Z,22.70
2023-03-28T16:21:49.632Z,21.80
2023-03-28T16:24:18.041Z,21.70
2023-03-28T16:26:46.445Z,22.90
2023-03-28T16:29:14.452Z,23.60
2023-03-28T16:31:42.700Z,22.10
2023-03-28T16:34:11.022Z,21.90
2023-03-28T16:36:39.320Z,20.50
2023-03-28T16:39:09.045Z,21.20
2023-03-28T16:41:37.223Z,21.70
2023-03-28T16:44:05.621Z,22.90
2023-03-28T16:46:33.881Z,22.80
2023-03-28T16:49:01.982Z,21.60
2023-03-28T16:51:30.031Z,21.50
2023-03-28T16:53:58.041Z,22.80
2023-03-28T16:56:30.143Z,23.70
2023-03-28T16:58:58.276Z,25.80
2023-03-28T17:01:26.439Z,26.60
2023-03-28T17:03:55.751Z,27.70
2023-03-28T17:06:23.957Z,28.10
2023-03-28T17:08:53.221Z,28.00
2023-03-28T17:11:32.856Z,28.20
2023-03-28T17:14:00.844Z,28.50
2023-03-28T17:16:29.354Z,28.90
2023-03-28T17:18:57.521Z,29.50
2023-03-28T17:21:25.542Z,29.00
2023-03-28T17:23:55.421Z,28.90
2023-03-28T17:26:23.443Z,29.20
2023-03-28T17:28:52.945Z,29.50
2023-03-28T17:31:21.833Z,30.30
2023-03-28T17:33:49.976Z,30.30
2023-03-28T17:36:21.983Z,30.90
2023-03-28T17:38:54.860Z,31.70
2023-03-28T17:41:26.281Z,32.70
2023-03-28T17:44:00.654Z,33.30
2023-03-28T17:46:30.744Z,33.90
2023-03-28T17:49:01.130Z,35.00
2023-03-28T17:51:32.592Z,35.80
2023-03-28T17:54:02.216Z,37.70
2023-03-28T17:56:32.251Z,38.00
2023-03-28T17:59:02.839Z,37.40
2023-03-28T18:01:31.092Z,41.30
2023-03-28T18:03:59.544Z,43.70
2023-03-28T18:06:28.146Z,44.30
2023-03-28T18:08:56.353Z,43.10
2023-03-28T18:11:24.420Z,43.90
2023-03-28T18:14:09.768Z,45.50
2023-03-28T18:16:38.779Z,48.10
2023-03-28T18:19:09.073Z,50.50
2023-03-28T18:21:38.083Z,53.70
2023-03-28T18:24:07.924Z,54.30
2023-03-28T18:26:37.153Z,56.50
2023-03-28T18:29:08.046Z,61.30
2023-03-28T18:31:37.105Z,66.30
2023-03-28T18:34:05.570Z,63.50
2023-03-28T18:36:33.823Z,71.30
2023-03-28T18:39:02.213Z,70.70
2023-03-28T18:41:30.167Z,71.70
2023-03-28T18:43:58.137Z,70.50
2023-03-28T18:46:29.749Z,74.70
2023-03-28T18:48:59.542Z,81.80
2023-03-28T18:51:28.748Z,90.00
2023-03-28T18:54:05.078Z,91.90
2023-03-28T18:56:34.799Z,92.60
2023-03-28T18:59:04.037Z,92.70
2023-03-28T19:01:49.609Z,91.20
2023-03-28T19:04:23.475Z,90.50
2023-03-28T19:06:51.827Z,92.40
2023-03-28T19:09:19.945Z,94.50
2023-03-28T19:11:50.380Z,93.20
2023-03-28T19:14:18.465Z,96.70
2023-03-28T19:16:47.872Z,99.90
2023-03-28T19:19:16.502Z,99.90
2023-03-28T19:21:45.521Z,99.90
2023-03-28T19:24:21.356Z,99.90
2023-03-28T19:26:54.264Z,99.90
2023-03-28T19:29:22.826Z,98.70
2023-03-28T19:31:54.137Z,96.90
2023-03-28T19:34:22.300Z,98.90
2023-03-28T19:36:50.521Z,99.90
2023-03-28T19:39:18.663Z,97.90
2023-03-28T19:41:46.749Z,99.90
2023-03-28T19:44:14.943Z,98.50
2023-03-28T19:46:43.355Z,97.30
2023-03-28T19:49:13.295Z,97.30
2023-03-28T19:51:41.469Z,95.00
2023-03-28T19:54:10.325Z,95.80
2023-03-28T19:56:38.482Z,97.40
2023-03-28T19:59:06.730Z,99.80
2023-03-28T20:01:36.005Z,99.90
2023-03-28T20:04:04.815Z,99.90
2023-03-28T20:06:34.448Z,99.90
2023-03-28T20:09:03.686Z,99.90
2023-03-28T20:11:33.431Z,99.90
2023-03-28T20:14:01.893Z,99.90
2023-03-28T20:16:32.743Z,99.90
2023-03-28T20:19:00.806Z,99.90
2023-03-28T20:21:29.907Z,99.90
2023-03-28T20:23:59.257Z,99.90
2023-03-28T20:26:28.248Z,99.90
2023-03-28T20:28:59.463Z,99.90
2023-03-28T20:31:28.780Z,99.90
2023-03-28T20:33:59.712Z,99.90
2023-03-28T20:36:28.161Z,99.90
2023-03-28T20:38:56.397Z,99.90
2023-03-28T20:41:27.366Z,99.90
2023-03-28T20:44:03.565Z,99.90
2023-03-28T20:46:34.273Z,99.90
2023-03-28T20:49:06.139Z,99.90
2023-03-28T20:51:38.783Z,99.90
2023-03-28T20:54:07.833Z,99.90
2023-03-28T20:56:38.660Z,99.90
2023-03-28T20:59:06.691Z,99.90
2023-03-28T21:01:39.801Z,99.90
2023-03-28T21:04:08.645Z,99.90
2023-03-28T21:06:38.257Z,99.90
2023-03-28T21:09:07.920Z,99.90
2023-03-28T21:11:38.927Z,99.90
2023-03-28T21:14:08.632Z,99.90
2023-03-28T21:16:37.711Z,99.90
2023-03-28T21:19:06.559Z,99.90
2023-03-28T21:21:34.621Z,99.90
2023-03-28T21:24:03.420Z,99.90
2023-03-28T21:26:31.930Z,99.90
2023-03-28T21:29:01.613Z,99.90
2023-03-28T21:31:30.854Z,99.90
2023-03-28T21:34:02.202Z,99.90
2023-03-28T21:36:30.395Z,99.90
2023-03-28T21:39:01.706Z,99.90
2023-03-28T21:41:29.778Z,99.90
2023-03-28T21:43:58.135Z,99.90
2023-03-28T21:46:27.885Z,99.90
2023-03-28T21:48:56.150Z,99.90
2023-03-28T21:51:29.040Z,99.90
2023-03-28T21:53:57.272Z,99.90
2023-03-28T21:56:26.182Z,99.90
2023-03-28T21:58:54.812Z,99.90
2023-03-28T22:01:23.410Z,99.90
2023-03-28T22:03:52.934Z,99.90
2023-03-28T22:06:20.912Z,99.90
2023-03-28T22:08:52.342Z,99.90
2023-03-28T22:11:27.641Z,99.90
2023-03-28T22:14:01.370Z,99.90
2023-03-28T22:16:31.323Z,99.90
2023-03-28T22:19:01.120Z,99.90
2023-03-28T22:21:31.428Z,99.90
2023-03-28T22:24:02.702Z,99.90
2023-03-28T22:26:33.797Z,99.90
2023-03-28T22:29:01.859Z,99.90
2023-03-28T22:31:29.979Z,99.90
2023-03-28T22:33:57.978Z,99.90
2023-03-28T22:36:28.832Z,99.90
2023-03-28T22:38:57.081Z,99.90
2023-03-28T22:41:25.722Z,99.90
2023-03-28T22:43:54.287Z,99.90
2023-03-28T22:46:26.135Z,99.90
2023-03-28T22:48:58.532Z,99.90
2023-03-28T22:51:31.396Z,99.90
2023-03-28T22:54:01.791Z,99.90
2023-03-28T22:56:30.603Z,99.90
2023-03-28T22:59:01.271Z,99.90
2023-03-28T23:01:30.091Z,99.90
2023-03-28T23:03:58.633Z,99.90
2023-03-28T23:06:27.137Z,99.90
2023-03-28T23:08:56.680Z,99.90
2023-03-28T23:11:24.643Z,99.90
2023-03-28T23:13:52.987Z,99.90
2023-03-28T23:16:21.054Z,99.90
2023-03-28T23:18:49.950Z,99.90
2023-03-28T23:21:18.758Z,99.90
2023-03-28T23:23:47.690Z,99.90
2023-03-28T23:26:17.813Z,99.90
2023-03-28T23:28:46.056Z,99.90
2023-03-28T23:31:14.735Z,99.90
2023-03-28T23:33:44.803Z,99.90
2023-03-28T23:36:14.019Z,99.90
2023-03-28T23:38:42.551Z,99.90
2023-03-28T23:41:13.295Z,99.90
2023-03-28T23:43:42.640Z,99.90
2023-03-28T23:46:11.156Z,99.90
2023-03-28T23:48:39.265Z,99.90
2023-03-28T23:51:08.120Z,99.90
2023-03-28T23:53:36.268Z,99.90
2023-03-28T23:56:04.657Z,99.90
2023-03-28T23:58:32.802Z,99.90
